createdAt,value
2022-09-23T00:01:22.043Z,93.1
2022-09-23T00:05:24.893Z,93.3
2022-09-23T00:07:25.772Z,93.4
2022-09-23T00:09:26.365Z,93.2
2022-09-23T00:11:27.518Z,92.2
2022-09-23T00:13:28.591Z,87.6
2022-09-23T00:15:28.840Z,87
2022-09-23T00:17:31.148Z,87
2022-09-23T00:19:33.335Z,88.1
2022-09-23T00:21:31.677Z,87.9
2022-09-23T00:23:36.236Z,88.8
2022-09-23T00:25:34.272Z,88.6
2022-09-23T00:27:35.199Z,89.3
2022-09-23T00:29:36.249Z,88.6
2022-09-23T00:31:37.939Z,88.7
2022-09-23T00:33:39.542Z,88.5
2022-09-23T00:35:41.485Z,88.3
2022-09-23T00:37:43.765Z,89.3
2022-09-23T00:39:45.355Z,90.1
2022-09-23T00:41:47.773Z,90
2022-09-23T00:43:49.618Z,90.1
2022-09-23T00:46:01.393Z,91.1
2022-09-23T00:48:02.250Z,91.8
2022-09-23T00:50:04.344Z,91.4
2022-09-23T00:52:05.088Z,90.7
2022-09-23T00:54:07.876Z,89.5
2022-09-23T00:56:09.199Z,89.3
2022-09-23T00:57:59.032Z,88
2022-09-23T01:00:00.334Z,88
2022-09-23T01:02:02.647Z,87.8
2022-09-23T01:04:04.524Z,87
2022-09-23T01:06:06.093Z,87.9
2022-09-23T01:08:06.807Z,87.6
2022-09-23T01:10:07.978Z,87.4
2022-09-23T01:12:08.794Z,86.4
2022-09-23T01:14:10.432Z,85.5
2022-09-23T01:16:12.279Z,85.3
2022-09-23T01:18:14.323Z,84.2
2022-09-23T01:20:15.542Z,84.5
2022-09-23T01:22:16.859Z,84.4
2022-09-23T01:24:19.281Z,84.2
2022-09-23T01:26:21.081Z,84.4
2022-09-23T01:28:42.393Z,85
2022-09-23T01:30:25.630Z,84.8
2022-09-23T01:32:26.983Z,84.5
2022-09-23T01:34:28.954Z,84.7
2022-09-23T01:36:31.022Z,84.4
2022-09-23T01:38:32.259Z,84.2
2022-09-23T01:40:32.972Z,85.6
2022-09-23T01:42:34.160Z,86.4
2022-09-23T01:44:36.246Z,86.2
2022-09-23T01:46:38.511Z,86.2
2022-09-23T01:48:55.418Z,86.6
2022-09-23T01:50:40.666Z,86.5
2022-09-23T01:52:41.419Z,87.1
2022-09-23T01:54:43.324Z,86.9
2022-09-23T01:56:45.791Z,86.5
2022-09-23T01:58:46.487Z,86.3
2022-09-23T02:00:52.248Z,85.7
2022-09-23T02:02:54.240Z,86
2022-09-23T02:04:56.478Z,86
2022-09-23T02:06:58.129Z,85.8
2022-09-23T02:09:01.429Z,86.4
2022-09-23T02:11:01.279Z,87.3
2022-09-23T02:13:01.999Z,87.8
2022-09-23T02:15:02.567Z,87
2022-09-23T02:17:03.539Z,87.2
2022-09-23T02:19:04.145Z,86.9
2022-09-23T02:21:04.611Z,87.5
2022-09-23T02:25:06.642Z,89.3
2022-09-23T02:27:07.753Z,90.1
2022-09-23T02:29:08.707Z,91.1
2022-09-23T02:31:09.509Z,90.9
2022-09-23T02:33:12.199Z,91.5
2022-09-23T02:35:13.669Z,91.3
2022-09-23T02:37:15.353Z,91.4
2022-09-23T02:39:16.562Z,92
2022-09-23T02:41:17.594Z,91.9
2022-09-23T02:43:19.555Z,92.3
2022-09-23T02:45:20.129Z,92.5
2022-09-23T02:49:24.253Z,93
2022-09-23T02:51:25.348Z,93.2
2022-09-23T02:53:26.983Z,92.9
2022-09-23T02:55:28.602Z,93.2
2022-09-23T02:57:30.986Z,93
2022-09-23T02:59:31.549Z,92.7
2022-09-23T03:01:32.915Z,92.8
2022-09-23T03:03:33.673Z,91.4
2022-09-23T03:05:35.374Z,91.3
2022-09-23T03:07:36.951Z,91.6
2022-09-23T03:09:38.957Z,91.5
2022-09-23T03:11:40.957Z,91.4
2022-09-23T03:13:41.713Z,91.3
2022-09-23T03:15:42.284Z,89.9
2022-09-23T03:17:44.388Z,89.8
2022-09-23T03:19:45.395Z,88.9
2022-09-23T03:21:46.584Z,88.7
2022-09-23T03:23:48.458Z,88.5
2022-09-23T03:25:49.461Z,88.3
2022-09-23T03:27:50.189Z,88.3
2022-09-23T03:29:50.816Z,88.3
2022-09-23T03:31:52.038Z,88.6
2022-09-23T03:33:53.874Z,88.5
2022-09-23T03:37:56.929Z,88.7
2022-09-23T03:39:57.367Z,89
2022-09-23T03:41:58.157Z,88.8
2022-09-23T03:44:00.513Z,88.9
2022-09-23T03:46:02.559Z,88.7
2022-09-23T03:48:04.155Z,89.1
2022-09-23T03:52:06.772Z,88.8
2022-09-23T03:54:08.026Z,89.5
2022-09-23T03:56:09.449Z,89.4
2022-09-23T03:58:11.227Z,90.6
2022-09-23T04:00:12.905Z,90.4
2022-09-23T04:02:14.740Z,91.1
2022-09-23T04:04:16.483Z,91.3
2022-09-23T04:06:17.411Z,91.3
2022-09-23T04:08:18.617Z,91.3
2022-09-23T04:12:20.937Z,91.7
2022-09-23T04:14:21.595Z,92.6
2022-09-23T04:16:24.153Z,92.4
2022-09-23T04:18:24.874Z,92.8
2022-09-23T04:20:26.196Z,93.3
2022-09-23T04:22:27.556Z,93.2
2022-09-23T04:24:29.539Z,93.2
2022-09-23T04:26:31.292Z,93
2022-09-23T04:29:05.772Z,92.9
2022-09-23T04:30:35.353Z,92.9
2022-09-23T04:32:37.102Z,92.9
2022-09-23T04:34:38.090Z,93
2022-09-23T04:36:39.604Z,93.7
2022-09-23T04:38:40.659Z,93.7
2022-09-23T04:42:41.972Z,94
2022-09-23T04:44:43.299Z,94.1
2022-09-23T04:46:44.839Z,94
2022-09-23T04:48:55.814Z,94.1
2022-09-23T04:50:48.306Z,94.2
2022-09-23T04:52:50.134Z,94
2022-09-23T04:54:51.161Z,93.9
2022-09-23T04:56:52.736Z,94.6
2022-09-23T04:58:54.480Z,94.8
2022-09-23T05:01:05.181Z,94.6
2022-09-23T05:03:01.069Z,94.8
2022-09-23T05:05:02.401Z,94.7
2022-09-23T05:07:04.484Z,94.7
2022-09-23T05:09:19.158Z,94.5
2022-09-23T05:11:07.524Z,94.7
2022-09-23T05:13:07.858Z,94.4
2022-09-23T05:15:08.994Z,94.8
2022-09-23T05:17:09.959Z,94.1
2022-09-23T05:19:15.485Z,94.2
2022-09-23T05:21:28.593Z,94.3
2022-09-23T05:23:35.986Z,93.4
2022-09-23T05:25:38.560Z,93.2
2022-09-23T05:27:38.333Z,93
2022-09-23T05:29:39.000Z,93.3
2022-09-23T05:33:40.444Z,93.8
2022-09-23T05:35:41.447Z,93.6
2022-09-23T05:37:42.673Z,93.6
2022-09-23T05:39:44.431Z,93.3
2022-09-23T05:41:51.793Z,93.1
2022-09-23T05:43:52.331Z,93.1
2022-09-23T05:46:08.679Z,92
2022-09-23T05:47:57.617Z,91.6
2022-09-23T05:50:01.784Z,90.8
2022-09-23T05:52:03.478Z,90.7
2022-09-23T05:54:05.867Z,90.4
2022-09-23T05:56:08.830Z,90.3
2022-09-23T05:58:09.064Z,90.3
2022-09-23T06:00:29.140Z,89.7
2022-09-23T06:02:30.537Z,89.5
2022-09-23T06:04:41.162Z,89.6
2022-09-23T06:06:42.525Z,89.9
2022-09-23T06:08:43.871Z,89.7
2022-09-23T06:10:54.747Z,90.6
2022-09-23T06:14:52.321Z,90.2
2022-09-23T06:16:54.630Z,89.9
2022-09-23T06:19:00.616Z,89.8
2022-09-23T06:20:58.499Z,90
2022-09-23T06:23:00.444Z,90.5
2022-09-23T06:25:02.026Z,90.4
2022-09-23T06:27:02.617Z,90.9
2022-09-23T06:29:27.829Z,91.4
2022-09-23T06:31:13.152Z,91.8
2022-09-23T06:33:13.124Z,91.7
2022-09-23T06:35:27.317Z,91.5
2022-09-23T06:37:20.690Z,91.7
2022-09-23T06:39:16.901Z,91.5
2022-09-23T06:41:17.302Z,91.9
2022-09-23T06:43:19.450Z,91.8
2022-09-23T06:45:20.701Z,92.1
2022-09-23T06:47:21.501Z,91.4
2022-09-23T06:51:24.673Z,89.6
2022-09-23T06:53:27.026Z,88.8
2022-09-23T06:55:28.042Z,87.8
2022-09-23T06:57:29.796Z,87.7
2022-09-23T06:59:30.129Z,87.2
2022-09-23T07:01:32.405Z,86
2022-09-23T07:03:33.874Z,85.5
2022-09-23T07:05:36.036Z,85.4
2022-09-23T07:07:37.458Z,85.1
2022-09-23T07:09:45.688Z,84.8
2022-09-23T07:11:40.927Z,83.7
2022-09-23T07:13:50.555Z,82.7
2022-09-23T07:15:58.778Z,82.9
2022-09-23T07:18:00.429Z,82
2022-09-23T07:20:02.721Z,82.2
2022-09-23T07:22:03.535Z,81.2
2022-09-23T07:24:04.535Z,81
2022-09-23T07:26:04.896Z,81
2022-09-23T07:28:06.857Z,80.3
2022-09-23T07:30:22.993Z,78.7
2022-09-23T07:32:14.392Z,78.7
2022-09-23T07:34:12.094Z,77.9
2022-09-23T07:36:13.837Z,76.8
2022-09-23T07:38:15.633Z,77.7
2022-09-23T07:40:27.500Z,76.2
2022-09-23T07:42:28.758Z,76.3
2022-09-23T07:44:29.751Z,75.5
2022-09-23T07:46:32.795Z,73.9
2022-09-23T07:48:34.862Z,73.9
2022-09-23T07:50:34.770Z,73.8
2022-09-23T07:52:45.610Z,73.7
2022-09-23T07:54:37.829Z,72.4
2022-09-23T07:56:43.019Z,71.4
2022-09-23T07:58:45.232Z,71.3
2022-09-23T08:00:47.292Z,70.6
2022-09-23T08:02:53.244Z,71.9
2022-09-23T08:04:50.690Z,71.9
2022-09-23T08:06:52.879Z,70.3
2022-09-23T08:09:04.496Z,69.5
2022-09-23T08:11:06.074Z,71
2022-09-23T08:13:07.913Z,71
2022-09-23T08:15:09.459Z,70.9
2022-09-23T08:17:10.802Z,70.7
2022-09-23T08:19:13.978Z,68.4
2022-09-23T08:21:15.419Z,69.8
2022-09-23T08:23:16.182Z,68.5
2022-09-23T08:25:22.161Z,67.4
2022-09-23T08:27:19.134Z,67.4
2022-09-23T08:33:25.031Z,67.7
2022-09-23T08:35:27.248Z,67.4
2022-09-23T08:37:27.611Z,67.7
2022-09-23T08:39:29.603Z,70.1
2022-09-23T08:41:30.903Z,70.1
2022-09-23T08:43:33.282Z,67.2
2022-09-23T08:45:33.825Z,67.2
2022-09-23T08:47:45.837Z,67.7
2022-09-23T08:50:11.982Z,67.7
2022-09-23T08:51:54.537Z,67.5
2022-09-23T08:53:50.731Z,67.5
2022-09-23T08:55:52.217Z,66.6
2022-09-23T08:58:25.688Z,65.5
2022-09-23T09:00:00.668Z,65.3
2022-09-23T09:02:02.675Z,65.3
2022-09-23T09:04:09.427Z,64.7
2022-09-23T09:06:05.975Z,64.6
2022-09-23T09:08:07.778Z,65.7
2022-09-23T09:10:23.304Z,65.4
2022-09-23T09:12:10.922Z,65.1
2022-09-23T09:14:23.783Z,65.1
2022-09-23T09:16:58.968Z,65
2022-09-23T09:18:20.016Z,66.1
2022-09-23T09:20:22.268Z,66
2022-09-23T09:22:22.182Z,66.3
2022-09-23T09:26:26.140Z,64.9
2022-09-23T09:28:26.127Z,65.5
2022-09-23T09:30:48.818Z,65.4
2022-09-23T09:32:36.683Z,63.6
2022-09-23T09:34:37.915Z,63.9
2022-09-23T09:36:38.395Z,63.9
2022-09-23T09:38:40.711Z,63.5
2022-09-23T09:40:41.469Z,63.4
2022-09-23T09:42:42.760Z,64.2
2022-09-23T09:44:44.227Z,63.4
2022-09-23T09:46:45.360Z,64.1
2022-09-23T09:48:46.273Z,63.3
2022-09-23T09:50:48.118Z,63.5
2022-09-23T09:52:49.344Z,63.5
2022-09-23T09:54:49.973Z,61.7
2022-09-23T09:56:52.060Z,61.7
2022-09-23T09:58:54.306Z,62.4
2022-09-23T10:01:01.255Z,62.6
2022-09-23T10:03:02.082Z,62.5
2022-09-23T10:05:03.707Z,61.9
2022-09-23T10:07:05.916Z,60.9
2022-09-23T10:09:18.016Z,60.9
2022-09-23T10:11:16.946Z,60.9
2022-09-23T10:13:11.517Z,61
2022-09-23T10:15:12.161Z,60.9
2022-09-23T10:17:14.083Z,62.5
2022-09-23T10:19:24.115Z,61.8
2022-09-23T10:21:30.060Z,59.3
2022-09-23T10:23:26.479Z,59.9
2022-09-23T10:25:39.201Z,59.9
2022-09-23T10:27:41.460Z,58.6
2022-09-23T10:29:42.608Z,59.9
2022-09-23T10:33:45.945Z,59.9
2022-09-23T10:35:47.402Z,59.2
2022-09-23T10:37:49.653Z,59.1
2022-09-23T10:39:51.979Z,58.6
2022-09-23T10:41:53.026Z,59.7
2022-09-23T10:43:55.115Z,59.7
2022-09-23T10:46:03.568Z,58.3
2022-09-23T10:48:05.883Z,58.6
2022-09-23T10:50:31.073Z,58.4
2022-09-23T10:52:08.957Z,58.9
2022-09-23T10:54:10.114Z,58.9
2022-09-23T10:56:12.340Z,61.1
2022-09-23T10:58:23.668Z,58.5
2022-09-23T11:00:23.207Z,57.9
2022-09-23T11:02:15.221Z,58.9
2022-09-23T11:04:16.956Z,58.8
2022-09-23T11:06:27.685Z,58.6
2022-09-23T11:08:20.665Z,59
2022-09-23T11:10:46.858Z,58.4
2022-09-23T11:14:24.377Z,59.7
2022-09-23T11:16:25.077Z,58.8
2022-09-23T11:18:26.508Z,59.6
2022-09-23T11:22:29.618Z,57.2
2022-09-23T11:24:31.952Z,58.5
2022-09-23T11:26:33.560Z,58.8
2022-09-23T11:28:34.219Z,58
2022-09-23T11:30:35.279Z,57.9
2022-09-23T11:32:36.862Z,59.1
2022-09-23T11:34:37.301Z,57.9
2022-09-23T11:36:38.699Z,57.4
2022-09-23T11:38:40.296Z,57.4
2022-09-23T11:40:46.506Z,56.8
2022-09-23T11:42:43.122Z,56.8
2022-09-23T11:44:44.540Z,56.7
2022-09-23T11:48:47.559Z,53.1
2022-09-23T11:50:49.090Z,53.1
2022-09-23T11:52:50.842Z,55.9
2022-09-23T11:54:52.131Z,54.4
2022-09-23T11:56:53.514Z,52.4
2022-09-23T11:58:59.730Z,53.9
2022-09-23T12:01:04.916Z,55.3
2022-09-23T12:03:06.834Z,54
2022-09-23T12:05:07.185Z,55.6
2022-09-23T12:07:08.543Z,55.8
2022-09-23T12:09:09.887Z,55.7
2022-09-23T12:11:10.876Z,55.4
2022-09-23T12:13:12.341Z,54.8
2022-09-23T12:15:13.308Z,55.2
2022-09-23T12:17:14.334Z,54
2022-09-23T12:19:15.849Z,55.1
2022-09-23T12:21:50.156Z,54.9
2022-09-23T12:23:16.988Z,54.9
2022-09-23T12:25:18.073Z,55.6
2022-09-23T12:27:20.328Z,57.5
2022-09-23T12:29:22.573Z,54.1
2022-09-23T12:31:24.408Z,55.2
2022-09-23T12:33:26.437Z,54.2
2022-09-23T12:35:28.393Z,54.2
2022-09-23T12:37:29.140Z,53.2
2022-09-23T12:39:29.268Z,55.8
2022-09-23T12:41:29.957Z,55.8
2022-09-23T12:43:30.339Z,54.7
2022-09-23T12:45:32.382Z,56.3
2022-09-23T12:47:34.030Z,56.2
2022-09-23T12:49:35.709Z,55
2022-09-23T12:51:37.474Z,54.6
2022-09-23T12:53:38.730Z,54.5
2022-09-23T12:55:39.938Z,54.6
2022-09-23T12:57:42.259Z,54.1
2022-09-23T12:59:44.554Z,54.1
2022-09-23T13:01:46.125Z,53.6
2022-09-23T13:03:47.342Z,56.5
2022-09-23T13:05:48.924Z,57.6
2022-09-23T13:07:50.454Z,54
2022-09-23T13:09:51.101Z,54.8
2022-09-23T13:11:52.427Z,52.5
2022-09-23T13:13:54.723Z,54.6
2022-09-23T13:15:56.598Z,53.4
2022-09-23T13:17:57.486Z,53.5
2022-09-23T13:19:59.061Z,53.3
2022-09-23T13:22:00.554Z,53.2
2022-09-23T13:24:02.707Z,54.1
2022-09-23T13:26:03.458Z,53.5
2022-09-23T13:28:05.638Z,53
2022-09-23T13:30:07.461Z,53.7
2022-09-23T13:32:08.824Z,53.6
2022-09-23T13:34:10.256Z,54.1
2022-09-23T13:36:11.397Z,54.1
2022-09-23T13:38:13.036Z,54.5
2022-09-23T13:40:15.302Z,53.1
2022-09-23T13:42:16.272Z,52.9
2022-09-23T13:44:18.564Z,52.5
2022-09-23T13:46:21.268Z,56
2022-09-23T13:48:22.503Z,56.9
2022-09-23T13:50:52.112Z,54.1
2022-09-23T13:52:26.052Z,54.2
2022-09-23T13:54:27.640Z,52.1
2022-09-23T13:56:28.307Z,53
2022-09-23T13:58:29.386Z,52.9
2022-09-23T14:00:30.720Z,53.2
2022-09-23T14:02:32.769Z,53.2
2022-09-23T14:04:33.975Z,53.7
2022-09-23T14:06:35.115Z,52.4
2022-09-23T14:08:36.111Z,55.3
2022-09-23T14:10:54.784Z,55.7
2022-09-23T14:12:39.188Z,54.3
2022-09-23T14:16:41.130Z,53.3
2022-09-23T14:18:41.961Z,53.3
2022-09-23T14:20:43.260Z,55.4
2022-09-23T14:22:44.703Z,53.9
2022-09-23T14:24:46.021Z,53.8
2022-09-23T14:26:47.640Z,54.8
2022-09-23T14:28:50.421Z,54.9
2022-09-23T14:31:07.911Z,54.6
2022-09-23T14:32:53.311Z,54.6
2022-09-23T14:34:54.962Z,55
2022-09-23T14:36:55.869Z,55
2022-09-23T14:38:56.939Z,56.2
2022-09-23T14:40:58.173Z,56.1
2022-09-23T14:42:59.002Z,57.1
2022-09-23T14:45:01.067Z,55
2022-09-23T14:47:02.372Z,54.7
2022-09-23T14:49:03.879Z,56.1
2022-09-23T14:51:06.487Z,56
2022-09-23T14:53:06.914Z,54.1
2022-09-23T14:55:08.578Z,54.1
2022-09-23T14:57:09.980Z,55.1
2022-09-23T14:59:11.754Z,55.5
2022-09-23T15:01:13.856Z,55.5
2022-09-23T15:03:19.857Z,56.5
2022-09-23T15:05:22.216Z,56.7
2022-09-23T15:07:24.141Z,56.3
2022-09-23T15:09:25.071Z,54
2022-09-23T15:11:27.003Z,54.8
2022-09-23T15:13:28.432Z,55.4
2022-09-23T15:15:29.585Z,55
2022-09-23T15:17:37.330Z,57.1
2022-09-23T15:19:39.617Z,54.7
2022-09-23T15:21:41.246Z,56.1
2022-09-23T15:23:42.232Z,55.6
2022-09-23T15:25:43.992Z,55.4
2022-09-23T15:27:46.308Z,54.6
2022-09-23T15:29:46.967Z,55
2022-09-23T15:31:48.540Z,54.9
2022-09-23T15:33:50.188Z,57.6
2022-09-23T15:35:52.190Z,57.3
2022-09-23T15:37:53.551Z,56.1
2022-09-23T15:39:55.015Z,56.1
2022-09-23T15:41:56.536Z,56.3
2022-09-23T15:43:57.727Z,56.3
2022-09-23T15:46:05.574Z,56
2022-09-23T15:48:07.478Z,55.9
2022-09-23T15:50:09.016Z,56.6
2022-09-23T15:52:10.213Z,56.5
2022-09-23T15:54:12.185Z,57.1
2022-09-23T15:56:13.048Z,57.1
2022-09-23T15:58:14.408Z,57.5
2022-09-23T16:00:15.583Z,57
2022-09-23T16:04:16.747Z,57.2
2022-09-23T16:06:17.739Z,56.8
2022-09-23T16:08:20.098Z,56.8
2022-09-23T16:10:21.569Z,57.7
2022-09-23T16:12:23.241Z,59.6
2022-09-23T16:14:25.022Z,58
2022-09-23T16:16:26.921Z,58
2022-09-23T16:18:27.132Z,58
2022-09-23T16:20:29.123Z,58.2
2022-09-23T16:22:30.716Z,59.5
2022-09-23T16:24:32.542Z,59.3
2022-09-23T16:26:33.417Z,59.3
2022-09-23T16:28:35.189Z,59.4
2022-09-23T16:30:37.022Z,59.4
2022-09-23T16:32:38.456Z,59.3
2022-09-23T16:34:39.996Z,59.1
2022-09-23T16:36:41.667Z,59.1
2022-09-23T16:38:43.342Z,59
2022-09-23T16:40:47.485Z,59.6
2022-09-23T16:42:46.420Z,58.9
2022-09-23T16:44:47.331Z,59.4
2022-09-23T16:46:48.253Z,59.3
2022-09-23T16:48:53.170Z,59.6
2022-09-23T16:51:12.197Z,61.9
2022-09-23T16:52:51.751Z,60.8
2022-09-23T16:54:53.752Z,60
2022-09-23T16:56:54.498Z,59.9
2022-09-23T16:58:56.103Z,62.4
2022-09-23T17:01:07.215Z,62.2
2022-09-23T17:03:08.736Z,61.7
2022-09-23T17:05:10.757Z,61.9
2022-09-23T17:07:11.563Z,62.4
2022-09-23T17:09:13.804Z,62.3
2022-09-23T17:11:15.470Z,63
2022-09-23T17:15:18.116Z,62.9
2022-09-23T17:19:21.258Z,63.7
2022-09-23T17:21:22.079Z,63.6
2022-09-23T17:25:26.108Z,62.3
2022-09-23T17:27:27.872Z,62.6
2022-09-23T17:29:29.793Z,62.9
2022-09-23T17:31:31.624Z,62.8
2022-09-23T17:33:33.219Z,63.3
2022-09-23T17:35:34.678Z,63.9
2022-09-23T17:37:37.049Z,63.8
2022-09-23T17:39:39.522Z,62.5
2022-09-23T17:41:40.713Z,64.6
2022-09-23T17:43:41.829Z,64.6
2022-09-23T17:45:43.610Z,65.3
2022-09-23T17:47:44.277Z,65.7
2022-09-23T17:49:45.848Z,65.6
2022-09-23T17:51:47.566Z,65.8
2022-09-23T17:53:49.143Z,65.9
2022-09-23T17:55:50.216Z,66.6
2022-09-23T17:57:51.730Z,66.5
2022-09-23T17:59:52.224Z,67.6
2022-09-23T18:01:54.366Z,68.7
2022-09-23T18:03:55.122Z,68.5
2022-09-23T18:05:56.115Z,69.4
2022-09-23T18:07:57.504Z,70.6
2022-09-23T18:09:58.238Z,77.5
2022-09-23T18:12:00.015Z,77.4
2022-09-23T18:14:01.717Z,78
2022-09-23T18:16:08.143Z,78.9
2022-09-23T18:18:09.827Z,77.9
2022-09-23T18:20:10.451Z,78.1
2022-09-23T18:22:11.443Z,78
2022-09-23T18:24:33.505Z,79.5
2022-09-23T18:26:14.907Z,81.5
2022-09-23T18:28:16.461Z,82.6
2022-09-23T18:30:17.336Z,84
2022-09-23T18:32:19.063Z,83.7
2022-09-23T18:34:21.270Z,85.2
2022-09-23T18:36:22.966Z,84.1
2022-09-23T18:38:24.359Z,84
2022-09-23T18:40:25.985Z,83.6
2022-09-23T18:42:26.391Z,84.1
2022-09-23T18:44:27.551Z,84
2022-09-23T18:46:29.928Z,83.9
2022-09-23T18:48:31.006Z,84.2
2022-09-23T18:50:31.874Z,85.1
2022-09-23T18:52:33.517Z,85.2
2022-09-23T18:54:34.802Z,85.1
2022-09-23T18:56:36.710Z,85
2022-09-23T18:58:37.271Z,80.1
2022-09-23T19:00:38.926Z,80
2022-09-23T19:04:41.950Z,74.3
2022-09-23T19:06:47.966Z,74.2
2022-09-23T19:08:49.006Z,77.7
2022-09-23T19:10:50.421Z,78.5
2022-09-23T19:12:52.258Z,76
2022-09-23T19:14:54.185Z,77.1
2022-09-23T19:16:55.348Z,77
2022-09-23T19:18:57.060Z,77.1
2022-09-23T19:20:57.673Z,73.5
2022-09-23T19:22:59.608Z,71.2
2022-09-23T19:25:00.609Z,70.6
2022-09-23T19:27:02.551Z,70.5
2022-09-23T19:29:04.152Z,70.9
2022-09-23T19:31:09.594Z,70.8
2022-09-23T19:33:09.912Z,71
2022-09-23T19:35:10.631Z,70.9
2022-09-23T19:37:11.102Z,71.5
2022-09-23T19:39:13.076Z,70.8
2022-09-23T19:41:15.071Z,70.5
2022-09-23T19:43:16.509Z,71.1
2022-09-23T19:45:18.602Z,70.9
2022-09-23T19:47:19.176Z,72.4
2022-09-23T19:49:20.274Z,72.3
2022-09-23T19:51:43.827Z,72.2
2022-09-23T19:53:28.680Z,73.5
2022-09-23T19:55:29.891Z,73.4
2022-09-23T19:57:31.132Z,73.9
2022-09-23T19:59:33.172Z,73.5
2022-09-23T20:01:35.179Z,73.4
2022-09-23T20:03:36.341Z,73
2022-09-23T20:05:38.412Z,72.9
2022-09-23T20:07:40.221Z,73.6
2022-09-23T20:09:42.886Z,73.1
2022-09-23T20:11:46.897Z,73.3
2022-09-23T20:13:46.034Z,73.6
2022-09-23T20:15:48.043Z,73.5
2022-09-23T20:17:50.561Z,74.2
2022-09-23T20:21:51.335Z,73.6
2022-09-23T20:23:53.067Z,74.2
2022-09-23T20:25:54.664Z,73.5
2022-09-23T20:29:56.393Z,73.6
2022-09-23T20:31:59.018Z,73.4
2022-09-23T20:33:59.141Z,73.2
2022-09-23T20:36:01.337Z,73
2022-09-23T20:38:08.146Z,73.8
2022-09-23T20:40:04.824Z,72.8
2022-09-23T20:42:06.607Z,72.2
2022-09-23T20:44:09.165Z,72.1
2022-09-23T20:46:14.363Z,71.6
2022-09-23T20:48:15.940Z,71.6
2022-09-23T20:50:16.331Z,71.5
2022-09-23T20:52:17.442Z,71.2
2022-09-23T20:54:17.872Z,71.1
2022-09-23T20:56:20.098Z,71.4
2022-09-23T20:58:21.779Z,71.2
2022-09-23T21:00:23.774Z,71.3
2022-09-23T21:02:24.759Z,71.6
2022-09-23T21:04:26.360Z,72.8
2022-09-23T21:06:28.153Z,72.7
2022-09-23T21:08:30.742Z,72.9
2022-09-23T21:12:32.973Z,73.3
2022-09-23T21:14:34.131Z,73
2022-09-23T21:16:35.287Z,72.5
2022-09-23T21:18:37.473Z,72.3
2022-09-23T21:20:39.798Z,72.4
2022-09-23T21:22:40.212Z,72.4
2022-09-23T21:25:27.468Z,74.5
2022-09-23T21:26:43.727Z,74.4
2022-09-23T21:28:45.069Z,76.4
2022-09-23T21:30:52.926Z,79.1
2022-09-23T21:32:48.710Z,79.4
2022-09-23T21:34:50.911Z,79.3
2022-09-23T21:36:51.593Z,79.7
2022-09-23T21:38:52.127Z,80
2022-09-23T21:40:54.390Z,79.9
2022-09-23T21:42:56.367Z,80.2
2022-09-23T21:44:56.935Z,80.1
2022-09-23T21:46:58.379Z,81.6
2022-09-23T21:48:59.490Z,81.5
2022-09-23T21:51:01.112Z,81.7
2022-09-23T21:53:02.994Z,79.9
2022-09-23T21:55:04.891Z,81.1
2022-09-23T21:57:06.389Z,81.3
2022-09-23T21:59:08.288Z,81.2
2022-09-23T22:01:16.360Z,82.4
2022-09-23T22:03:17.753Z,82.3
2022-09-23T22:05:20.222Z,82.8
2022-09-23T22:07:21.412Z,83.1
2022-09-23T22:09:23.128Z,85.3
2022-09-23T22:11:25.170Z,84.8
2022-09-23T22:15:27.804Z,86.1
2022-09-23T22:17:29.808Z,82.6
2022-09-23T22:19:31.071Z,82.4
2022-09-23T22:21:32.736Z,79.9
2022-09-23T22:23:33.863Z,79.8
2022-09-23T22:25:34.989Z,79.5
2022-09-23T22:27:36.195Z,79.4
2022-09-23T22:29:37.053Z,83
2022-09-23T22:32:07.669Z,82.9
2022-09-23T22:33:40.599Z,84
2022-09-23T22:35:41.655Z,83.8
2022-09-23T22:37:42.838Z,82.9
2022-09-23T22:39:44.375Z,80.7
2022-09-23T22:41:46.043Z,80.6
2022-09-23T22:43:47.959Z,80.8
2022-09-23T22:45:49.632Z,83.3
2022-09-23T22:47:50.597Z,83.5
2022-09-23T22:49:52.820Z,83.3
2022-09-23T22:52:09.974Z,85.1
2022-09-23T22:53:56.366Z,84.7
2022-09-23T22:55:58.014Z,85.1
2022-09-23T22:58:30.740Z,85
2022-09-23T23:00:01.490Z,84.9
2022-09-23T23:02:02.556Z,84
2022-09-23T23:04:03.526Z,85.3
2022-09-23T23:06:05.334Z,86.2
2022-09-23T23:08:06.437Z,85.6
2022-09-23T23:10:08.511Z,85.5
2022-09-23T23:12:12.284Z,80.7
2022-09-23T23:14:11.627Z,79.4
2022-09-23T23:16:17.884Z,79.3
2022-09-23T23:18:19.006Z,79.6
2022-09-23T23:20:19.566Z,79.8
2022-09-23T23:22:22.059Z,79.7
2022-09-23T23:24:23.046Z,79.6
2022-09-23T23:26:24.051Z,80.2
2022-09-23T23:28:26.363Z,80.5
2022-09-23T23:30:28.224Z,80
2022-09-23T23:32:29.640Z,79.8
2022-09-23T23:34:30.351Z,80.4
2022-09-23T23:36:32.650Z,80.3
2022-09-23T23:38:34.287Z,79.8
2022-09-23T23:40:37.079Z,80.8
2022-09-23T23:42:37.284Z,80.8
2022-09-23T23:44:39.289Z,80.7
2022-09-23T23:46:41.097Z,81.9
2022-09-23T23:48:42.989Z,82.5
2022-09-23T23:50:43.444Z,83.1
2022-09-23T23:54:46.635Z,84.5
2022-09-23T23:56:48.731Z,84.7
2022-09-23T23:58:50.377Z,84.6
